Time,TemperatureF,DewpointF,PressureIn,WindDirection,WindDirectionDegrees,WindSpeedMPH,WindSpeedGustMPH,Humidity,HourlyPrecipIn,Conditions,Clouds,dailyrainin,SoftwareType,DateUTC
2013-09-13 00:11:00,63.0,58.0,29.50,West,271,0.0,0.0,85,0.00,,,-99.99,,2013-09-13 07:11:00,
2013-09-13 00:22:00,63.0,58.0,29.50,West,271,0.0,0.0,85,0.00,,,-99.99,,2013-09-13 07:22:00,
2013-09-13 00:33:00,63.0,58.0,29.50,West,271,0.0,0.0,85,0.00,,,-99.99,,2013-09-13 07:33:00,
2013-09-13 01:11:00,61.0,56.0,29.49,West,271,0.0,0.0,84,0.00,,,-99.99,,2013-09-13 08:11:00,
2013-09-13 01:22:00,61.0,56.0,29.49,West,271,0.0,0.0,84,0.00,,,-99.99,,2013-09-13 08:22:00,
2013-09-13 01:52:00,61.0,56.0,29.48,West,271,0.0,0.0,85,0.00,,,-99.99,,2013-09-13 08:52:00,
2013-09-13 02:21:00,61.0,57.0,29.48,West,271,0.0,0.0,86,0.00,,,-99.99,,2013-09-13 09:21:00,
2013-09-13 02:33:00,61.0,57.0,29.48,West,271,0.0,0.0,86,0.00,,,-99.99,,2013-09-13 09:33:00,
2013-09-13 02:53:00,60.0,56.0,29.48,West,271,0.0,0.0,86,0.00,,,-99.99,,2013-09-13 09:53:00,
2013-09-13 03:03:00,60.0,56.0,29.48,West,271,0.0,0.0,86,0.00,,,-99.99,,2013-09-13 10:03:00,
2013-09-13 03:23:00,59.0,55.0,29.47,West,271,0.0,0.0,86,0.00,,,-99.99,,2013-09-13 10:23:00,
2013-09-13 03:33:00,59.0,55.0,29.47,West,271,0.0,0.0,86,0.00,,,-99.99,,2013-09-13 10:33:00,
2013-09-13 03:51:00,58.0,53.0,29.47,West,278,0.0,0.0,84,0.00,,,-99.99,,2013-09-13 10:51:00,
2013-09-13 03:52:00,59.0,54.0,29.47,West,278,0.0,0.0,85,0.00,,,-99.99,,2013-09-13 10:52:00,
2013-09-13 04:03:00,59.0,54.0,29.47,West,278,0.0,0.0,85,0.00,,,-99.99,,2013-09-13 11:03:00,
2013-09-13 04:22:00,58.0,53.0,29.47,West,278,0.0,0.0,84,0.00,,,-99.99,,2013-09-13 11:22:00,
2013-09-13 04:33:00,58.0,53.0,29.47,West,278,0.0,0.0,84,0.00,,,-99.99,,2013-09-13 11:33:00,
2013-09-13 05:21:00,59.0,55.0,29.46,NE,52,1.0,5.0,86,0.00,,,-99.99,,2013-09-13 12:21:00,
2013-09-13 05:32:00,59.0,55.0,29.46,NE,52,1.0,5.0,86,0.00,,,-99.99,,2013-09-13 12:32:00,
2013-09-13 05:51:00,58.0,54.0,29.46,NE,52,0.0,4.0,88,0.00,,,-99.99,,2013-09-13 12:51:00,
2013-09-13 06:21:00,58.0,54.0,29.46,NE,52,1.0,5.0,88,0.00,,,-99.99,,2013-09-13 13:21:00,
2013-09-13 06:51:00,56.0,52.0,29.46,NE,52,0.0,1.0,88,0.00,,,-99.99,,2013-09-13 13:51:00,
2013-09-13 06:52:00,57.0,53.0,29.46,NE,52,0.0,0.0,88,0.00,,,-99.99,,2013-09-13 13:52:00,
2013-09-13 07:02:00,57.0,53.0,29.46,NE,52,0.0,0.0,88,0.00,,,-99.99,,2013-09-13 14:02:00,
2013-09-13 07:21:00,56.0,52.0,29.46,NE,52,0.0,1.0,88,0.00,,,-99.99,,2013-09-13 14:21:00,
2013-09-13 07:32:00,56.0,52.0,29.46,NE,52,0.0,1.0,88,0.00,,,-99.99,,2013-09-13 14:32:00,
2013-09-13 07:42:00,56.0,52.0,29.46,NE,52,0.0,1.0,88,0.00,,,-99.99,,2013-09-13 14:42:00,
2013-09-13 07:51:00,58.0,54.0,29.46,NE,52,0.0,2.0,86,0.00,,,-99.99,,2013-09-13 14:51:00,
2013-09-13 08:22:00,58.0,54.0,29.46,NE,52,0.0,2.0,86,0.00,,,-99.99,,2013-09-13 15:22:00,
2013-09-13 08:33:00,58.0,54.0,29.46,NE,52,0.0,2.0,86,0.00,,,-99.99,,2013-09-13 15:33:00,
2013-09-13 09:24:00,65.0,58.0,29.46,NE,52,0.0,1.0,77,0.00,,,-99.99,,2013-09-13 16:24:00,
2013-09-13 09:32:00,65.0,58.0,29.46,NE,52,0.0,1.0,77,0.00,,,-99.99,,2013-09-13 16:32:00,
2013-09-13 09:54:00,68.0,59.0,29.46,West,263,0.0,4.0,73,0.00,,,-99.99,,2013-09-13 16:54:00,
2013-09-13 10:04:00,68.0,59.0,29.46,West,263,0.0,4.0,73,0.00,,,-99.99,,2013-09-13 17:04:00,
2013-09-13 10:21:00,73.0,60.0,29.46,NW,311,1.0,7.0,64,0.00,,,-99.99,,2013-09-13 17:21:00,
2013-09-13 10:23:00,70.0,59.0,29.46,WNW,291,1.0,5.0,68,0.00,,,-99.99,,2013-09-13 17:23:00,
2013-09-13 10:33:00,70.0,59.0,29.46,WNW,291,1.0,5.0,68,0.00,,,-99.99,,2013-09-13 17:33:00,
2013-09-13 10:52:00,73.0,60.0,29.46,NW,311,1.0,7.0,64,0.00,,,-99.99,,2013-09-13 17:52:00,
2013-09-13 11:02:00,73.0,60.0,29.46,NW,311,1.0,7.0,64,0.00,,,-99.99,,2013-09-13 18:02:00,
2013-09-13 11:12:00,73.0,60.0,29.46,NW,311,1.0,7.0,64,0.00,,,-99.99,,2013-09-13 18:12:00,
2013-09-13 11:52:00,76.0,60.0,29.45,WNW,296,1.0,7.0,58,0.00,,,-99.99,,2013-09-13 18:52:00,
2013-09-13 12:01:00,76.0,60.0,29.45,WNW,296,1.0,7.0,58,0.00,,,-99.99,,2013-09-13 19:01:00,
2013-09-13 12:22:00,77.0,60.0,29.44,WSW,239,1.0,4.0,55,0.00,,,-99.99,,2013-09-13 19:22:00,
2013-09-13 12:32:00,77.0,60.0,29.44,WSW,239,1.0,4.0,55,0.00,,,-99.99,,2013-09-13 19:32:00,
2013-09-13 12:52:00,78.0,59.0,29.43,WSW,250,2.0,6.0,53,0.00,,,-99.99,,2013-09-13 19:52:00,
2013-09-13 13:02:00,78.0,59.0,29.43,WSW,250,2.0,6.0,53,0.00,,,-99.99,,2013-09-13 20:02:00,
2013-09-13 13:21:00,79.0,59.0,29.42,SE,141,1.0,5.0,51,0.00,,,-99.99,,2013-09-13 20:21:00,
2013-09-13 13:32:00,79.0,59.0,29.42,SE,141,1.0,5.0,51,0.00,,,-99.99,,2013-09-13 20:32:00,
2013-09-13 13:52:00,79.0,59.0,29.41,South,181,1.0,8.0,51,0.00,,,-99.99,,2013-09-13 20:52:00,
2013-09-13 14:02:00,79.0,59.0,29.41,South,181,1.0,8.0,51,0.00,,,-99.99,,2013-09-13 21:02:00,
2013-09-13 14:21:00,79.0,59.0,29.40,SSW,209,1.0,4.0,50,0.00,,,-99.99,,2013-09-13 21:21:00,
2013-09-13 14:34:00,79.0,59.0,29.40,SSW,209,1.0,4.0,50,0.00,,,-99.99,,2013-09-13 21:34:00,
2013-09-13 14:51:00,80.0,59.0,29.38,SSW,209,1.0,5.0,49,0.00,,,-99.99,,2013-09-13 21:51:00,
2013-09-13 14:54:00,80.0,60.0,29.39,South,188,1.0,5.0,50,0.00,,,-99.99,,2013-09-13 21:54:00,
2013-09-13 15:04:00,80.0,60.0,29.39,South,188,1.0,5.0,50,0.00,,,-99.99,,2013-09-13 22:04:00,
2013-09-13 15:23:00,80.0,59.0,29.38,SSW,209,1.0,5.0,49,0.00,,,-99.99,,2013-09-13 22:23:00,
2013-09-13 15:33:00,80.0,59.0,29.38,SSW,209,1.0,5.0,49,0.00,,,-99.99,,2013-09-13 22:33:00,
2013-09-13 16:21:00,81.0,57.0,29.35,South,170,0.0,6.0,44,0.00,,,-99.99,,2013-09-13 23:21:00,
2013-09-13 16:22:00,81.0,57.0,29.37,SSE,165,0.0,2.0,44,0.00,,,-99.99,,2013-09-13 23:22:00,
2013-09-13 16:33:00,81.0,57.0,29.37,SSE,165,0.0,2.0,44,0.00,,,-99.99,,2013-09-13 23:33:00,
2013-09-13 16:52:00,81.0,57.0,29.35,South,170,0.0,6.0,44,0.00,,,-99.99,,2013-09-13 23:52:00,
2013-09-13 17:01:00,81.0,57.0,29.35,South,170,0.0,6.0,44,0.00,,,-99.99,,2013-09-14 00:01:00,
2013-09-13 19:21:00,70.0,58.0,29.34,West,267,0.0,1.0,65,0.00,,,-99.99,,2013-09-14 02:21:00,
2013-09-13 19:22:00,72.0,58.0,29.34,West,268,0.0,6.0,61,0.00,,,-99.99,,2013-09-14 02:22:00,
2013-09-13 19:33:00,72.0,58.0,29.34,West,268,0.0,6.0,61,0.00,,,-99.99,,2013-09-14 02:33:00,
2013-09-13 19:52:00,70.0,58.0,29.34,West,267,0.0,1.0,65,0.00,,,-99.99,,2013-09-14 02:52:00,
2013-09-13 20:02:00,70.0,58.0,29.34,West,267,0.0,1.0,65,0.00,,,-99.99,,2013-09-14 03:02:00,
2013-09-13 20:11:00,70.0,58.0,29.34,West,267,0.0,1.0,65,0.00,,,-99.99,,2013-09-14 03:11:00,
2013-09-13 21:24:00,67.0,58.0,29.35,West,267,0.0,0.0,72,0.00,,,-99.99,,2013-09-14 04:24:00,
2013-09-13 21:34:00,67.0,58.0,29.35,West,267,0.0,0.0,72,0.00,,,-99.99,,2013-09-14 04:34:00,
2013-09-13 21:54:00,66.0,57.0,29.35,West,267,0.0,1.0,74,0.00,,,-99.99,,2013-09-14 04:54:00,
2013-09-13 22:03:00,66.0,57.0,29.35,West,267,0.0,1.0,74,0.00,,,-99.99,,2013-09-14 05:03:00,
2013-09-13 22:21:00,64.0,57.0,29.35,West,267,0.0,0.0,77,0.00,,,-99.99,,2013-09-14 05:21:00,
2013-09-13 22:22:00,65.0,57.0,29.35,West,267,0.0,1.0,76,0.00,,,-99.99,,2013-09-14 05:22:00,
2013-09-13 22:52:00,64.0,57.0,29.35,West,267,0.0,0.0,77,0.00,,,-99.99,,2013-09-14 05:52:00,
2013-09-13 23:02:00,64.0,57.0,29.35,West,267,0.0,0.0,77,0.00,,,-99.99,,2013-09-14 06:02:00,
2013-09-13 23:12:00,64.0,57.0,29.35,West,267,0.0,0.0,77,0.00,,,-99.99,,2013-09-14 06:12:00,
2013-09-13 23:52:00,64.0,58.0,29.36,West,267,0.0,0.0,80,0.00,,,-99.99,,2013-09-14 06:52:00,